Time;durP1;ratioP1;P1;durP2;ratioP2;P2;SDS_P1;SDS_P2;PMS_P1;PMS_P2;Temp;Humidity;BMP_temperature;BMP_pressure;BME280_temperature;BME280_humidity;BME280_pressure;Samples;Min_cycle;Max_cycle;Signal;HPM_P1;HPM_P2
2024/01/27 00:00:34;;;;;;;7.67;1.70;;;;;;;5.22;100.00;101998.38;4996641;28;20233;-73
2024/01/27 00:03:00;;;;;;;9.33;1.63;;;;;;;5.22;100.00;101991.34;4967578;28;20206;-73
2024/01/27 00:05:28;;;;;;;9.20;1.83;;;;;;;5.21;100.00;102002.84;4965099;28;20238;-73
2024/01/27 00:07:55;;;;;;;7.43;2.03;;;;;;;5.21;100.00;101999.44;4969955;28;20276;-73
2024/01/27 00:10:22;;;;;;;6.80;1.50;;;;;;;5.22;100.00;102009.66;4967134;28;20194;-73
2024/01/27 00:12:48;;;;;;;11.43;2.10;;;;;;;5.21;100.00;102008.09;4966354;28;20201;-73
2024/01/27 00:15:15;;;;;;;6.47;1.83;;;;;;;5.21;100.00;102012.53;4979342;28;20229;-73
2024/01/27 00:17:42;;;;;;;3.87;1.20;;;;;;;5.20;100.00;102011.75;4976909;28;20215;-73
2024/01/27 00:20:09;;;;;;;8.60;1.80;;;;;;;5.19;100.00;102006.78;4983606;28;20204;-73
2024/01/27 00:22:35;;;;;;;7.33;1.83;;;;;;;5.17;100.00;102017.50;4966921;28;20206;-73
2024/01/27 00:25:04;;;;;;;11.47;2.20;;;;;;;5.18;100.00;102016.44;4965274;28;20230;-73
2024/01/27 00:27:30;;;;;;;13.67;1.73;;;;;;;5.17;100.00;102011.47;4967302;28;20220;-73
2024/01/27 00:29:57;;;;;;;8.43;1.93;;;;;;;5.17;100.00;102021.94;4965849;28;20257;-73
2024/01/27 00:32:23;;;;;;;13.27;1.83;;;;;;;5.17;100.00;102020.13;4965798;28;20205;-73
2024/01/27 00:34:50;;;;;;;8.47;1.67;;;;;;;5.17;100.00;102024.56;4964177;28;20225;-73
2024/01/27 00:37:17;;;;;;;13.10;1.50;;;;;;;5.15;100.00;102018.78;4962250;28;20257;-73
2024/01/27 00:39:45;;;;;;;8.97;1.40;;;;;;;5.16;100.00;102030.84;4966758;28;20632;-73
2024/01/27 00:42:13;;;;;;;7.40;1.53;;;;;;;5.15;100.00;102037.13;4963195;28;20256;-73
2024/01/27 00:44:40;;;;;;;6.43;1.50;;;;;;;5.16;100.00;102041.31;4966125;28;20216;-74
2024/01/27 00:47:06;;;;;;;5.50;1.47;;;;;;;5.16;100.00;102029.03;4967555;28;20206;-74
2024/01/27 00:49:33;;;;;;;7.30;1.47;;;;;;;5.15;100.00;102027.44;4965708;28;20296;-74
2024/01/27 00:51:59;;;;;;;6.20;1.40;;;;;;;5.16;100.00;102038.69;4979296;28;20206;-73
2024/01/27 00:54:26;;;;;;;6.87;1.57;;;;;;;5.12;100.00;102042.88;4969569;28;20201;-73
2024/01/27 00:56:53;;;;;;;6.57;1.40;;;;;;;5.12;100.00;102037.66;4968312;28;20673;-74
2024/01/27 00:59:21;;;;;;;7.70;1.37;;;;;;;5.10;100.00;102048.38;4969483;28;20277;-73
2024/01/27 01:01:48;;;;;;;6.73;1.50;;;;;;;5.09;100.00;102044.19;4967748;28;20213;-73
2024/01/27 01:04:14;;;;;;;11.77;1.70;;;;;;;5.09;99.47;102046.00;4970949;28;20277;-73
2024/01/27 01:06:41;;;;;;;9.73;1.87;;;;;;;5.09;99.40;102054.66;4972417;28;20221;-73
2024/01/27 01:09:07;;;;;;;10.90;1.60;;;;;;;5.10;99.09;102063.28;4970856;28;20205;-73
2024/01/27 01:11:33;;;;;;;8.50;1.50;;;;;;;5.10;99.01;102058.03;4985245;28;20210;-73
2024/01/27 01:14:00;;;;;;;6.33;1.17;;;;;;;5.09;99.85;102065.13;4968240;28;20691;-73
2024/01/27 01:16:28;;;;;;;8.60;1.60;;;;;;;5.08;99.26;102066.13;4968783;28;20210;-74
2024/01/27 01:18:54;;;;;;;13.03;1.57;;;;;;;5.06;99.61;102060.38;4968648;28;20206;-73
2024/01/27 01:21:21;;;;;;;13.97;2.00;;;;;;;5.07;99.21;102069.03;4967879;28;20217;-73
2024/01/27 01:23:48;;;;;;;9.07;1.73;;;;;;;5.05;99.17;102073.72;4981604;28;20198;-73
2024/01/27 01:26:14;;;;;;;4.87;1.60;;;;;;;5.04;99.89;102080.00;4969329;28;20257;-74
2024/01/27 01:28:41;;;;;;;6.00;1.27;;;;;;;5.03;100.00;102071.34;4970976;28;20202;-73
2024/01/27 01:31:08;;;;;;;7.53;1.47;;;;;;;5.02;100.00;102082.84;4969008;28;20756;-73
2024/01/27 01:33:38;;;;;;;7.60;1.73;;;;;;;5.01;100.00;102077.88;4967252;28;20252;-74
2024/01/27 01:36:06;;;;;;;9.00;1.70;;;;;;;5.01;100.00;102076.03;4966444;28;20246;-73
2024/01/27 01:38:34;;;;;;;8.67;1.70;;;;;;;5.00;100.00;102095.41;4979595;28;20371;-73
2024/01/27 01:41:01;;;;;;;10.80;1.70;;;;;;;4.99;100.00;102099.09;4967170;28;20277;-73
2024/01/27 01:43:28;;;;;;;7.47;1.43;;;;;;;4.99;100.00;102099.09;4969392;28;20208;-73
2024/01/27 01:45:54;;;;;;;4.10;1.53;;;;;;;4.99;100.00;102104.31;4966246;28;20529;-73
2024/01/27 01:48:21;;;;;;;5.93;1.60;;;;;;;4.98;100.00;102110.56;4968234;28;20205;-73
2024/01/27 01:50:50;;;;;;;8.43;1.20;;;;;;;5.00;100.00;102112.94;4969353;28;20249;-73
2024/01/27 01:53:17;;;;;;;7.70;1.90;;;;;;;4.98;100.00;102112.41;4967801;28;20561;-74
2024/01/27 01:55:43;;;;;;;7.23;1.30;;;;;;;4.98;100.00;102120.28;4968386;28;20612;-73
2024/01/27 01:58:10;;;;;;;7.70;1.57;;;;;;;4.98;100.00;102112.41;4969037;28;21801;-73
2024/01/27 02:00:37;;;;;;;6.37;1.37;;;;;;;4.95;100.00;102111.09;4968407;28;20209;-73
2024/01/27 02:03:04;;;;;;;6.83;1.73;;;;;;;4.94;100.00;102109.50;4968729;28;20281;-73
2024/01/27 02:05:32;;;;;;;8.17;1.87;;;;;;;4.92;99.96;102110.81;4998286;28;20230;-73
2024/01/27 02:08:01;;;;;;;7.50;1.53;;;;;;;4.89;100.00;102133.03;4965451;28;20792;-73
2024/01/27 02:10:30;;;;;;;3.60;1.60;;;;;;;4.90;100.00;102115.47;4966461;28;20266;-73
2024/01/27 02:12:57;;;;;;;9.00;1.60;;;;;;;4.88;99.47;102117.56;4969555;28;20315;-74
2024/01/27 02:15:24;;;;;;;6.37;2.77;;;;;;;4.88;100.00;102110.50;4968712;28;20226;-74
2024/01/27 02:17:51;;;;;;;9.30;1.70;;;;;;;4.87;99.30;102124.63;4968492;28;20233;-73
2024/01/27 02:20:18;;;;;;;11.37;2.10;;;;;;;4.85;99.52;102116.25;4964595;28;20204;-73
2024/01/27 02:22:45;;;;;;;8.33;1.57;;;;;;;4.83;99.03;102110.44;4970368;28;20225;-73
2024/01/27 02:25:12;;;;;;;9.47;1.73;;;;;;;4.81;99.08;102098.69;4969348;28;20515;-73
2024/01/27 02:27:39;;;;;;;4.07;1.57;;;;;;;4.81;97.35;102109.16;4967683;28;20199;-73
2024/01/27 02:30:07;;;;;;;11.43;1.97;;;;;;;4.80;99.78;102115.41;4966173;28;20202;-73
2024/01/27 02:32:33;;;;;;;7.50;1.27;;;;;;;4.77;100.00;102121.16;4967621;28;20198;-73
2024/01/27 02:35:00;;;;;;;11.53;1.60;;;;;;;4.78;100.00;102117.50;4968876;28;20221;-73
2024/01/27 02:37:27;;;;;;;8.57;1.47;;;;;;;4.78;99.22;102120.91;4967605;28;20692;-74
2024/01/27 02:39:53;;;;;;;9.83;1.87;;;;;;;4.80;99.99;102125.88;4969284;28;20211;-73
2024/01/27 02:42:21;;;;;;;5.33;1.47;;;;;;;4.79;97.21;102122.47;4970278;28;20575;-73
2024/01/27 02:44:47;;;;;;;8.60;1.97;;;;;;;4.80;96.72;102125.88;4968002;28;20209;-73
2024/01/27 02:47:14;;;;;;;9.90;1.80;;;;;;;4.77;95.39;102129.78;4971385;28;20200;-74
2024/01/27 02:49:40;;;;;;;9.17;1.70;;;;;;;4.78;96.96;102127.94;4964484;28;20198;-73
2024/01/27 02:52:08;;;;;;;12.43;1.70;;;;;;;4.75;97.39;102131.06;4968655;28;20205;-73
2024/01/27 02:54:35;;;;;;;9.73;1.90;;;;;;;4.75;96.81;102136.28;4968477;28;20198;-73
2024/01/27 02:57:02;;;;;;;6.03;1.73;;;;;;;4.75;96.07;102129.25;4968153;28;20848;-73
2024/01/27 02:59:29;;;;;;;10.87;1.80;;;;;;;4.75;96.81;102137.09;4967678;28;20198;-74
2024/01/27 03:01:57;;;;;;;7.10;1.87;;;;;;;4.75;95.44;102138.91;4966106;28;20584;-73
2024/01/27 03:04:23;;;;;;;10.17;1.50;;;;;;;4.74;95.32;102135.50;4968324;28;20691;-73
2024/01/27 03:06:50;;;;;;;9.47;1.70;;;;;;;4.73;94.88;102138.38;4966932;28;20634;-73
2024/01/27 03:09:16;;;;;;;5.63;1.83;;;;;;;4.72;96.08;102144.66;4966122;28;20206;-74
2024/01/27 03:11:43;;;;;;;6.23;1.47;;;;;;;4.71;96.58;102141.22;4967725;28;20212;-73
2024/01/27 03:14:10;;;;;;;9.27;1.70;;;;;;;4.69;94.45;102134.66;4967349;28;20205;-73
2024/01/27 03:16:38;;;;;;;6.30;1.50;;;;;;;4.67;96.23;102126.28;4966815;28;20227;-73
2024/01/27 03:19:04;;;;;;;11.50;1.83;;;;;;;4.63;96.36;102131.25;4965886;28;20209;-73
2024/01/27 03:21:31;;;;;;;15.30;1.77;;;;;;;4.58;95.88;102131.19;4968591;28;20207;-73
2024/01/27 03:23:57;;;;;;;15.47;1.90;;;;;;;4.54;94.54;102124.88;4968156;28;20205;-73
2024/01/27 03:26:24;;;;;;;10.47;1.63;;;;;;;4.52;96.06;102128.75;4966963;28;20218;-73
2024/01/27 03:28:51;;;;;;;6.80;1.30;;;;;;;4.52;95.80;102136.63;4967751;28;20256;-73
2024/01/27 03:31:18;;;;;;;8.93;1.93;;;;;;;4.50;95.63;102138.69;4972286;28;20206;-73
2024/01/27 03:33:46;;;;;;;12.40;1.27;;;;;;;4.48;96.62;102138.13;4969423;28;20213;-73
2024/01/27 03:36:13;;;;;;;9.93;1.57;;;;;;;4.44;96.02;102143.06;4967608;28;20702;-73
2024/01/27 03:38:41;;;;;;;9.00;1.30;;;;;;;4.43;96.75;102146.72;4967071;28;20213;-73
2024/01/27 03:41:07;;;;;;;6.37;1.57;;;;;;;4.42;96.78;102149.59;4966234;28;20225;-73
2024/01/27 03:43:34;;;;;;;10.87;1.60;;;;;;;4.42;98.70;102155.63;4967578;28;20214;-74
2024/01/27 03:46:01;;;;;;;11.93;1.77;;;;;;;4.41;98.03;102164.47;4969303;28;20210;-73
2024/01/27 03:48:27;;;;;;;9.53;2.20;;;;;;;4.43;98.18;102174.69;4969880;28;20194;-74
2024/01/27 03:50:55;;;;;;;9.17;2.07;;;;;;;4.43;98.79;102182.53;4970360;28;20213;-73
2024/01/27 03:53:22;;;;;;;7.70;1.43;;;;;;;4.40;98.54;102178.59;4967913;28;20209;-73
2024/01/27 03:55:48;;;;;;;10.70;1.40;;;;;;;4.41;97.70;102187.25;4965209;28;20214;-73
2024/01/27 03:58:15;;;;;;;7.27;1.90;;;;;;;4.42;99.36;102192.22;4967579;28;20202;-73
2024/01/27 04:00:41;;;;;;;8.13;1.60;;;;;;;4.43;99.01;102193.00;4965866;28;20213;-73
2024/01/27 04:03:09;;;;;;;7.20;1.80;;;;;;;4.43;98.44;102193.00;4966550;28;20200;-73
2024/01/27 04:05:36;;;;;;;6.27;1.23;;;;;;;4.44;98.86;102195.38;4967524;28;20224;-73
2024/01/27 04:08:05;;;;;;;7.67;1.63;;;;;;;4.44;99.81;102205.84;4967133;28;20198;-73
2024/01/27 04:10:32;;;;;;;12.13;1.77;;;;;;;4.44;98.59;102208.47;4966129;28;20211;-73
2024/01/27 04:12:59;;;;;;;11.37;2.27;;;;;;;4.44;99.09;102208.47;4967073;28;20657;-74
2024/01/27 04:15:25;;;;;;;9.70;1.63;;;;;;;4.45;99.02;102207.41;4971070;28;20278;-73
2024/01/27 04:17:52;;;;;;;6.97;1.93;;;;;;;4.47;100.00;102212.41;4964563;28;20317;-73
2024/01/27 04:20:18;;;;;;;15.53;2.33;;;;;;;4.48;100.00;102201.72;4964867;28;20233;-73
2024/01/27 04:22:45;;;;;;;7.20;1.73;;;;;;;4.49;100.00;102212.94;4967141;28;20212;-73
2024/01/27 04:25:13;;;;;;;12.40;1.90;;;;;;;4.51;100.00;102208.28;4967417;28;20226;-73
2024/01/27 04:27:41;;;;;;;12.33;1.67;;;;;;;4.51;99.37;102210.88;4967969;28;20205;-73
2024/01/27 04:30:08;;;;;;;10.30;2.00;;;;;;;4.53;100.00;102212.22;4966933;28;20204;-73
2024/01/27 04:32:35;;;;;;;9.67;1.97;;;;;;;4.55;99.83;102199.69;4965829;28;20202;-73
2024/01/27 04:35:03;;;;;;;16.10;2.20;;;;;;;4.58;99.30;102195.78;4964979;28;20212;-73
2024/01/27 04:37:29;;;;;;;11.83;2.10;;;;;;;4.59;100.00;102199.97;4965209;28;20551;-73
2024/01/27 04:39:56;;;;;;;10.40;1.83;;;;;;;4.57;99.35;102202.06;4966296;28;20209;-72
2024/01/27 04:42:24;;;;;;;10.10;1.70;;;;;;;4.59;99.08;102211.25;4964649;28;20527;-73
2024/01/27 04:44:50;;;;;;;12.97;1.73;;;;;;;4.60;99.00;102220.66;4964057;28;20324;-75
2024/01/27 04:47:17;;;;;;;13.57;1.80;;;;;;;4.59;99.89;102206.00;4964434;28;20209;-73
2024/01/27 04:49:44;;;;;;;6.37;1.50;;;;;;;4.59;100.00;102203.41;4970132;28;20214;-73
2024/01/27 04:52:11;;;;;;;8.97;2.17;;;;;;;4.61;99.66;102221.47;4964749;28;20229;-73
2024/01/27 04:54:37;;;;;;;10.90;1.67;;;;;;;4.61;100.00;102224.84;4966712;28;20202;-74
2024/01/27 04:57:05;;;;;;;12.00;2.77;;;;;;;4.61;100.00;102218.84;4966130;28;20222;-73
2024/01/27 04:59:33;;;;;;;11.17;2.60;;;;;;;4.60;99.66;102209.41;4966637;28;20206;-74
2024/01/27 05:01:59;;;;;;;5.63;1.40;;;;;;;4.58;100.00;102204.44;4968972;28;20190;-73
2024/01/27 05:04:26;;;;;;;9.63;1.90;;;;;;;4.57;100.00;102208.06;4964651;28;20200;-73
2024/01/27 05:06:53;;;;;;;5.47;1.50;;;;;;;4.57;99.58;102220.38;4968539;28;20217;-73
2024/01/27 05:09:20;;;;;;;12.87;2.33;;;;;;;4.56;99.34;102226.66;4979714;28;20214;-73
2024/01/27 05:11:48;;;;;;;13.97;2.20;;;;;;;4.54;99.81;102220.84;4965917;28;20198;-73
2024/01/27 05:14:14;;;;;;;9.10;1.83;;;;;;;4.51;100.00;102229.19;4965690;28;20256;-74
2024/01/27 05:16:42;;;;;;;11.13;1.90;;;;;;;4.47;100.00;102247.22;4963319;28;20236;-73
2024/01/27 05:19:09;;;;;;;9.07;1.73;;;;;;;4.46;100.00;102234.38;4963775;28;20205;-73
2024/01/27 05:21:35;;;;;;;5.73;1.20;;;;;;;4.44;100.00;102229.38;4967415;28;20214;-73
2024/01/27 05:24:02;;;;;;;4.27;1.50;;;;;;;4.44;100.00;102239.03;4967018;28;20633;-73
2024/01/27 05:26:28;;;;;;;8.60;1.70;;;;;;;4.39;100.00;102257.28;4965870;28;20206;-73
2024/01/27 05:28:55;;;;;;;8.57;2.17;;;;;;;4.39;100.00;102252.06;4963782;28;20693;-73
2024/01/27 05:31:22;;;;;;;11.73;2.13;;;;;;;4.38;100.00;102253.09;4980766;28;20217;-73
2024/01/27 05:33:49;;;;;;;10.17;1.63;;;;;;;4.39;100.00;102254.66;4966312;28;20205;-73
2024/01/27 05:36:16;;;;;;;5.27;1.40;;;;;;;4.38;100.00;102274.81;4962089;28;20229;-73
2024/01/27 05:38:43;;;;;;;7.33;2.10;;;;;;;4.38;100.00;102276.63;4964957;28;20203;-74
2024/01/27 05:41:09;;;;;;;10.70;1.50;;;;;;;4.40;100.00;102277.19;4967623;28;20202;-73
2024/01/27 05:43:36;;;;;;;8.13;1.50;;;;;;;4.40;100.00;102277.97;4969155;28;20205;-73
2024/01/27 05:46:02;;;;;;;11.00;1.77;;;;;;;4.39;100.00;102273.78;4971477;28;20240;-73
2024/01/27 05:48:29;;;;;;;10.67;1.70;;;;;;;4.41;100.00;102291.84;4971919;28;20217;-74
2024/01/27 05:50:58;;;;;;;15.40;2.00;;;;;;;4.40;100.00;102292.88;4968801;28;20198;-73
2024/01/27 05:53:24;;;;;;;13.53;2.33;;;;;;;4.40;100.00;102285.03;4969935;28;20202;-73
2024/01/27 05:55:51;;;;;;;9.30;1.60;;;;;;;4.40;100.00;102291.06;4967950;28;20220;-73
2024/01/27 05:58:20;;;;;;;10.50;1.83;;;;;;;4.41;100.00;102297.09;4972064;28;20219;-73
2024/01/27 06:00:47;;;;;;;10.73;1.67;;;;;;;4.41;100.00;102299.69;4969709;28;20212;-73
2024/01/27 06:03:14;;;;;;;8.53;1.50;;;;;;;4.41;100.00;102313.53;4968322;28;20267;-74
2024/01/27 06:05:41;;;;;;;7.27;2.37;;;;;;;4.42;100.00;102316.97;4969369;28;20231;-73
2024/01/27 06:08:09;;;;;;;13.73;1.97;;;;;;;4.43;100.00;102321.16;4969431;28;20201;-73
2024/01/27 06:10:37;;;;;;;8.73;2.20;;;;;;;4.43;100.00;102324.56;4966112;28;20206;-73
2024/01/27 06:13:04;;;;;;;6.77;2.03;;;;;;;4.44;100.00;102325.34;4968358;28;20657;-73
2024/01/27 06:15:30;;;;;;;8.87;1.40;;;;;;;4.41;100.00;102324.00;4967908;28;20594;-73
2024/01/27 06:17:57;;;;;;;10.23;2.03;;;;;;;4.42;100.00;102324.81;4969785;28;20217;-73
2024/01/27 06:20:24;;;;;;;10.47;2.57;;;;;;;4.44;100.00;102326.16;4967842;28;20584;-73
2024/01/27 06:22:52;;;;;;;9.97;1.87;;;;;;;4.43;100.00;102321.16;4969712;28;20196;-73
2024/01/27 06:25:20;;;;;;;7.53;2.10;;;;;;;4.43;100.00;102331.63;4991286;28;20284;-73
2024/01/27 06:27:45;;;;;;;12.37;2.03;;;;;;;4.44;100.00;102333.19;4980860;28;20224;-73
2024/01/27 06:30:14;;;;;;;10.63;1.80;;;;;;;4.44;100.00;102341.84;4980731;28;20266;-73
2024/01/27 06:32:40;;;;;;;8.70;2.10;;;;;;;4.43;100.00;102340.28;4977642;28;20230;-73
2024/01/27 06:35:07;;;;;;;12.07;1.93;;;;;;;4.44;100.00;102346.28;4972945;28;20219;-73
2024/01/27 06:37:35;;;;;;;14.13;2.17;;;;;;;4.44;100.00;102341.84;4981759;28;20221;-72
2024/01/27 06:40:01;;;;;;;13.07;2.00;;;;;;;4.43;100.00;102335.03;4988001;28;20193;-72
2024/01/27 06:42:29;;;;;;;15.53;2.37;;;;;;;4.46;100.00;102336.38;4991039;28;20187;-72
2024/01/27 06:44:56;;;;;;;12.10;2.03;;;;;;;4.46;100.00;102344.22;4994098;28;20278;-73
2024/01/27 06:47:22;;;;;;;8.73;2.10;;;;;;;4.45;100.00;102348.66;4995173;28;20193;-72
2024/01/27 06:49:49;;;;;;;8.23;1.73;;;;;;;4.45;100.00;102353.88;4992876;28;20211;-72
2024/01/27 06:52:15;;;;;;;9.07;1.50;;;;;;;4.44;100.00;102352.31;4991545;28;20201;-72
2024/01/27 06:54:44;;;;;;;10.70;1.93;;;;;;;4.46;100.00;102367.75;4977713;28;20465;-73
2024/01/27 06:57:18;;;;;;;6.07;1.33;;;;;;;4.44;100.00;102375.03;4981825;28;20214;-73
2024/01/27 06:59:48;;;;;;;10.70;2.33;;;;;;;4.42;100.00;102375.31;4989240;28;20208;-72
2024/01/27 07:02:14;;;;;;;8.60;1.67;;;;;;;4.43;100.00;102381.31;4989773;28;20290;-73
2024/01/27 07:04:41;;;;;;;9.90;1.57;;;;;;;4.43;100.00;102386.53;4990093;28;20225;-72
2024/01/27 07:07:07;;;;;;;8.60;1.93;;;;;;;4.44;100.00;102382.88;4985281;28;20204;-74
2024/01/27 07:09:34;;;;;;;10.20;2.13;;;;;;;4.43;100.00;102389.97;4970985;28;20200;-73
2024/01/27 07:12:00;;;;;;;12.27;1.87;;;;;;;4.44;100.00;102398.59;4971625;28;20205;-72
2024/01/27 07:14:27;;;;;;;10.53;2.00;;;;;;;4.43;100.00;102407.47;4965390;28;20208;-73
2024/01/27 07:16:55;;;;;;;10.03;2.03;;;;;;;4.44;100.00;102401.19;4966799;28;20226;-73
2024/01/27 07:19:21;;;;;;;7.60;1.40;;;;;;;4.45;100.00;102413.28;4968030;28;20209;-73
2024/01/27 07:21:48;;;;;;;9.03;1.70;;;;;;;4.45;100.00;102408.81;4965610;28;20656;-73
2024/01/27 07:24:14;;;;;;;8.40;1.40;;;;;;;4.46;100.00;102414.84;4966353;28;20215;-73
2024/01/27 07:26:41;;;;;;;9.27;1.77;;;;;;;4.46;100.00;102420.06;4995626;28;20233;-73
2024/01/27 07:29:08;;;;;;;12.70;2.27;;;;;;;4.47;100.00;102419.03;4966385;28;20202;-73
2024/01/27 07:31:35;;;;;;;11.27;2.37;;;;;;;4.47;100.00;102426.88;4963230;28;20698;-73
2024/01/27 07:34:06;;;;;;;7.80;1.73;;;;;;;4.49;100.00;102432.66;4966680;28;20559;-72
2024/01/27 07:36:32;;;;;;;6.70;1.43;;;;;;;4.49;100.00;102433.47;4964637;28;20751;-73
2024/01/27 07:38:59;;;;;;;8.00;1.50;;;;;;;4.51;100.00;102439.22;4966790;28;20205;-73
2024/01/27 07:41:26;;;;;;;7.67;1.80;;;;;;;4.53;100.00;102431.16;4964640;28;20200;-73
2024/01/27 07:43:55;;;;;;;10.53;1.83;;;;;;;4.55;100.00;102437.72;4967651;28;20538;-73
2024/01/27 07:46:22;;;;;;;12.27;2.13;;;;;;;4.55;100.00;102442.97;4965697;28;21657;-73
2024/01/27 07:48:49;;;;;;;6.67;1.57;;;;;;;4.57;100.00;102438.25;4970173;28;20220;-73
2024/01/27 07:51:17;;;;;;;10.50;2.43;;;;;;;4.59;100.00;102441.47;4967890;28;20408;-73
2024/01/27 07:53:43;;;;;;;14.30;1.70;;;;;;;4.60;100.00;102443.03;4968240;28;20228;-73
2024/01/27 07:56:10;;;;;;;11.60;2.10;;;;;;;4.63;100.00;102453.03;4963552;28;20229;-73
2024/01/27 07:58:37;;;;;;;7.03;1.43;;;;;;;4.65;100.00;102461.41;4965078;28;20222;-75
2024/01/27 08:01:04;;;;;;;7.30;1.53;;;;;;;4.67;100.00;102455.94;4967122;28;20214;-73
2024/01/27 08:03:31;;;;;;;9.37;2.10;;;;;;;4.70;100.00;102458.88;4963662;28;20210;-73
2024/01/27 08:05:58;;;;;;;7.23;1.70;;;;;;;4.72;100.00;102466.50;4966519;28;20222;-73
2024/01/27 08:08:26;;;;;;;7.50;1.77;;;;;;;4.74;100.00;102467.84;4967297;28;20206;-73
2024/01/27 08:10:52;;;;;;;11.27;1.73;;;;;;;4.76;100.00;102468.38;4962806;28;20210;-74
2024/01/27 08:13:19;;;;;;;11.10;1.50;;;;;;;4.79;100.00;102475.75;4967540;28;20224;-73
2024/01/27 08:15:45;;;;;;;6.67;1.63;;;;;;;4.81;100.00;102478.91;4964585;28;20248;-73
2024/01/27 08:18:12;;;;;;;8.77;1.77;;;;;;;4.84;100.00;102475.84;4966786;28;20221;-73
2024/01/27 08:20:38;;;;;;;15.57;2.03;;;;;;;4.86;100.00;102479.00;4997143;28;20217;-73
2024/01/27 08:23:05;;;;;;;14.03;2.00;;;;;;;4.89;100.00;102478.50;4967301;28;20229;-73
2024/01/27 08:25:33;;;;;;;7.90;2.07;;;;;;;4.92;100.00;102464.94;4966246;28;20301;-73
2024/01/27 08:27:59;;;;;;;10.67;2.03;;;;;;;4.96;100.00;102470.47;4964086;28;20202;-73
2024/01/27 08:30:26;;;;;;;7.47;1.40;;;;;;;4.99;100.00;102481.28;4997149;28;20214;-73
2024/01/27 08:32:52;;;;;;;7.63;2.00;;;;;;;5.01;100.00;102481.81;4966156;28;20209;-73
2024/01/27 08:35:19;;;;;;;19.43;1.97;;;;;;;5.04;100.00;102476.09;4964809;28;20632;-73
2024/01/27 08:37:46;;;;;;;17.27;2.43;;;;;;;5.07;100.00;102472.22;4966863;28;20218;-73
2024/01/27 08:40:13;;;;;;;13.50;2.67;;;;;;;5.08;100.00;102482.41;4979249;28;20204;-73
2024/01/27 08:42:41;;;;;;;6.50;1.37;;;;;;;5.11;100.00;102476.72;4965520;28;20202;-73
2024/01/27 08:45:08;;;;;;;14.87;2.50;;;;;;;5.15;100.00;102482.25;4963648;28;20572;-73
2024/01/27 08:47:35;;;;;;;14.00;2.17;;;;;;;5.16;100.00;102487.25;4965359;28;20683;-73
2024/01/27 08:50:02;;;;;;;13.40;2.33;;;;;;;5.21;100.00;102494.34;4967212;28;20214;-73
2024/01/27 08:52:29;;;;;;;16.77;3.20;;;;;;;5.22;100.00;102496.75;4963857;28;20244;-73
2024/01/27 08:54:55;;;;;;;11.40;3.37;;;;;;;5.26;100.00;102497.03;4965011;28;20237;-73
2024/01/27 08:57:22;;;;;;;10.43;2.43;;;;;;;5.27;100.00;102498.63;4965913;28;20692;-73
2024/01/27 08:59:49;;;;;;;16.17;3.00;;;;;;;5.32;100.00;102490.81;4966545;28;20209;-73
2024/01/27 09:02:16;;;;;;;10.00;2.47;;;;;;;5.35;100.00;102500.84;4962897;28;20277;-73
2024/01/27 09:04:43;;;;;;;12.03;2.53;;;;;;;5.37;100.00;102485.66;4965194;28;20198;-73
2024/01/27 09:07:09;;;;;;;9.73;1.97;;;;;;;5.41;100.00;102495.41;4965281;28;20193;-73
2024/01/27 09:09:38;;;;;;;8.37;1.70;;;;;;;5.43;100.00;102497.78;4967171;28;20195;-73
2024/01/27 09:12:04;;;;;;;9.13;2.60;;;;;;;5.47;100.00;102511.97;4963087;28;20208;-73
2024/01/27 09:14:33;;;;;;;8.53;2.03;;;;;;;5.50;100.00;102501.00;4965702;28;20195;-73
2024/01/27 09:17:01;;;;;;;9.27;1.80;;;;;;;5.53;100.00;102513.59;4966749;28;20280;-73
2024/01/27 09:19:28;;;;;;;10.93;1.70;;;;;;;5.57;100.00;102519.94;4970565;28;20225;-73
2024/01/27 09:21:55;;;;;;;9.27;2.10;;;;;;;5.63;100.00;102518.97;4967560;28;20209;-73
2024/01/27 09:24:22;;;;;;;14.40;1.80;;;;;;;5.64;100.00;102513.47;4971140;28;20201;-73
2024/01/27 09:26:48;;;;;;;8.27;1.97;;;;;;;5.68;100.00;102522.44;4969990;28;20598;-73
2024/01/27 09:29:15;;;;;;;12.63;2.70;;;;;;;5.72;100.00;102522.75;4984528;28;20674;-73
2024/01/27 09:31:41;;;;;;;6.23;2.43;;;;;;;5.75;100.00;102538.75;4985667;28;20220;-73
2024/01/27 09:34:09;;;;;;;8.07;2.33;;;;;;;5.77;100.00;102539.31;4971180;28;20213;-74
2024/01/27 09:36:36;;;;;;;11.03;2.27;;;;;;;5.81;100.00;102540.44;4982387;28;20230;-73
2024/01/27 09:39:02;;;;;;;13.90;2.60;;;;;;;5.84;100.00;102552.25;4968986;28;20214;-73
2024/01/27 09:41:32;;;;;;;10.70;3.70;;;;;;;5.85;100.00;102544.16;4968084;28;20281;-72
2024/01/27 09:44:02;;;;;;;14.30;3.83;;;;;;;5.89;100.00;102545.25;4967925;28;20210;-74
2024/01/27 09:46:29;;;;;;;11.00;2.60;;;;;;;5.91;100.00;102545.78;4968691;28;20727;-74
2024/01/27 09:48:56;;;;;;;12.80;3.30;;;;;;;5.93;100.00;102545.53;4980847;28;20661;-74
2024/01/27 09:51:24;;;;;;;17.70;3.73;;;;;;;5.97;100.00;102547.44;4967179;28;20201;-74
2024/01/27 09:53:51;;;;;;;11.47;2.30;;;;;;;6.00;100.00;102541.69;4966703;28;20190;-72
2024/01/27 09:56:19;;;;;;;11.97;2.70;;;;;;;6.04;100.00;102555.09;4966179;28;20217;-72
2024/01/27 09:58:49;;;;;;;28.00;12.73;;;;;;;6.04;100.00;102539.34;4980702;28;20228;-73
2024/01/27 10:01:17;;;;;;;21.50;9.43;;;;;;;6.06;99.49;102547.78;4968503;28;20210;-74
2024/01/27 10:03:44;;;;;;;7.27;3.97;;;;;;;6.10;100.00;102540.97;4969591;28;20202;-74
2024/01/27 10:06:11;;;;;;;7.33;2.60;;;;;;;6.13;100.00;102553.63;4965941;28;20272;-74
2024/01/27 10:08:39;;;;;;;10.27;2.00;;;;;;;6.15;100.00;102559.41;4969240;28;20210;-73
2024/01/27 10:11:08;;;;;;;8.20;2.33;;;;;;;6.17;99.44;102554.72;4969309;28;20202;-72
2024/01/27 10:13:35;;;;;;;9.13;1.97;;;;;;;6.19;99.23;102555.25;4981478;28;20225;-72
2024/01/27 10:16:03;;;;;;;10.63;1.90;;;;;;;6.21;100.00;102553.19;4968410;28;20231;-73
2024/01/27 10:18:29;;;;;;;9.47;2.00;;;;;;;6.23;98.83;102546.66;4967813;28;20241;-72
2024/01/27 10:20:56;;;;;;;9.37;1.83;;;;;;;6.23;99.12;102549.28;4965902;28;20516;-72
2024/01/27 10:23:23;;;;;;;11.87;2.13;;;;;;;6.26;100.00;102548.75;4991488;28;20678;-72
2024/01/27 10:25:52;;;;;;;9.37;2.30;;;;;;;6.26;99.01;102550.59;4966209;28;20225;-72
2024/01/27 10:28:19;;;;;;;9.13;3.83;;;;;;;6.27;99.95;102555.59;4966983;28;20588;-73
2024/01/27 10:30:48;;;;;;;9.83;3.10;;;;;;;6.29;99.82;102552.72;4967074;28;20200;-74
2024/01/27 10:33:15;;;;;;;12.77;3.17;;;;;;;6.29;100.00;102558.78;4966680;28;20700;-72
2024/01/27 10:35:41;;;;;;;7.97;2.67;;;;;;;6.23;98.40;102572.88;4973684;28;20228;-72
2024/01/27 10:38:08;;;;;;;15.57;2.37;;;;;;;6.21;97.72;102574.16;4962846;28;20214;-72
2024/01/27 10:40:36;;;;;;;10.40;2.87;;;;;;;6.26;98.75;102569.75;4967811;28;20206;-71
2024/01/27 10:43:06;;;;;;;11.23;2.27;;;;;;;6.30;100.00;102573.47;4966875;28;20202;-73
2024/01/27 10:45:37;;;;;;;8.50;3.37;;;;;;;6.31;98.73;102569.78;4968630;28;20222;-73
2024/01/27 10:48:05;;;;;;;8.93;2.20;;;;;;;6.32;98.11;102575.84;4961332;28;20249;-73
2024/01/27 10:50:36;;;;;;;12.50;2.50;;;;;;;6.33;98.90;102565.06;4977840;28;20349;-73
2024/01/27 10:53:05;;;;;;;13.80;2.77;;;;;;;6.35;99.27;102570.88;4966437;28;20593;-73
2024/01/27 10:55:34;;;;;;;8.67;2.70;;;;;;;6.38;99.83;102566.97;4981910;28;20946;-73
2024/01/27 10:58:02;;;;;;;6.97;2.37;;;;;;;6.37;99.92;102563.56;4967538;28;20214;-73
2024/01/27 11:00:31;;;;;;;9.37;2.33;;;;;;;6.36;97.61;102572.47;4965888;28;20598;-73
2024/01/27 11:03:00;;;;;;;10.33;2.63;;;;;;;6.35;97.94;102575.34;4979246;28;20206;-73
2024/01/27 11:05:28;;;;;;;12.23;2.57;;;;;;;6.35;98.44;102584.00;4978482;28;20995;-73
2024/01/27 11:07:55;;;;;;;10.30;2.13;;;;;;;6.33;97.78;102583.44;4964855;28;20217;-73
2024/01/27 11:10:23;;;;;;;16.17;2.53;;;;;;;6.32;97.12;102597.59;4996549;28;20205;-73
2024/01/27 11:12:52;;;;;;;12.87;2.67;;;;;;;6.33;99.55;102588.69;4981187;28;20209;-72
2024/01/27 11:15:18;;;;;;;12.33;2.20;;;;;;;6.35;98.49;102591.88;4964474;28;20226;-73
2024/01/27 11:17:46;;;;;;;9.03;2.50;;;;;;;6.36;97.64;102592.66;4967381;28;20213;-73
2024/01/27 11:20:16;;;;;;;9.50;2.07;;;;;;;6.40;97.45;102593.75;4968367;28;20204;-73
2024/01/27 11:22:43;;;;;;;9.23;2.33;;;;;;;6.42;98.07;102596.94;4968789;28;20725;-73